createdAt,value
2022-11-19T00:01:10.419Z,4.73
2022-11-19T00:03:38.347Z,4.87
2022-11-19T00:06:11.978Z,5.53
2022-11-19T00:08:38.842Z,4.83
2022-11-19T00:11:09.772Z,4.93
2022-11-19T00:13:37.821Z,5.50
2022-11-19T00:16:07.107Z,5.20
2022-11-19T00:18:34.053Z,5.77
2022-11-19T00:21:08.810Z,5.33
2022-11-19T00:23:35.814Z,5.40
2022-11-19T00:26:10.913Z,6.37
2022-11-19T00:28:38.082Z,5.60
2022-11-19T00:31:09.602Z,6.23
2022-11-19T00:33:37.452Z,5.70
2022-11-19T00:36:06.016Z,5.97
2022-11-19T00:38:32.661Z,5.87
2022-11-19T00:40:59.402Z,5.87
2022-11-19T00:43:44.690Z,6.67
2022-11-19T00:46:11.436Z,6.83
2022-11-19T00:48:41.112Z,6.57
2022-11-19T00:51:08.776Z,6.90
2022-11-19T00:53:36.886Z,6.67
2022-11-19T00:56:05.767Z,7.57
2022-11-19T00:58:32.730Z,6.67
2022-11-19T01:00:59.425Z,7.70
2022-11-19T01:03:27.136Z,8.07
2022-11-19T01:05:53.972Z,7.93
2022-11-19T01:08:20.579Z,8.33
2022-11-19T01:10:47.072Z,9.40
2022-11-19T01:13:32.328Z,9.90
2022-11-19T01:15:59.164Z,10.23
2022-11-19T01:18:26.807Z,10.33
2022-11-19T01:20:53.580Z,9.13
2022-11-19T01:23:20.204Z,9.30
2022-11-19T01:25:46.698Z,10.80
2022-11-19T01:28:13.293Z,10.23
2022-11-19T01:30:41.277Z,10.53
2022-11-19T01:33:08.132Z,9.90
2022-11-19T01:35:37.984Z,10.80
2022-11-19T01:38:05.425Z,11.10
2022-11-19T01:40:32.569Z,12.03
2022-11-19T01:42:59.081Z,12.50
2022-11-19T01:45:38.253Z,13.23
2022-11-19T01:48:07.891Z,14.37
2022-11-19T01:50:40.023Z,14.27
2022-11-19T01:53:09.339Z,14.77
2022-11-19T01:55:37.198Z,14.10
2022-11-19T01:58:03.887Z,15.47
2022-11-19T02:00:30.446Z,14.80
2022-11-19T02:02:57.023Z,14.43
2022-11-19T02:05:23.596Z,15.73
2022-11-19T02:07:54.656Z,15.13
2022-11-19T02:10:29.973Z,14.70
2022-11-19T02:13:08.667Z,14.80
2022-11-19T02:15:58.456Z,16.20
2022-11-19T02:18:34.085Z,18.43
2022-11-19T02:21:15.905Z,17.50
2022-11-19T02:23:54.760Z,16.57
2022-11-19T02:26:33.325Z,15.93
2022-11-19T02:29:30.156Z,16.60
2022-11-19T02:31:59.805Z,15.47
2022-11-19T02:34:32.138Z,15.70
2022-11-19T02:37:26.669Z,15.87
2022-11-19T02:39:57.960Z,16.53
2022-11-19T02:42:39.325Z,15.77
2022-11-19T02:45:10.565Z,15.60
2022-11-19T02:47:51.557Z,17.50
2022-11-19T02:50:22.693Z,18.27
2022-11-19T02:52:49.512Z,18.67
2022-11-19T02:55:19.107Z,15.93
2022-11-19T02:57:51.650Z,16.47
2022-11-19T03:00:37.256Z,19.83
2022-11-19T03:03:30.419Z,19.47
2022-11-19T03:06:08.766Z,18.27
2022-11-19T03:08:35.682Z,19.30
2022-11-19T03:11:17.007Z,17.90
2022-11-19T03:14:08.624Z,18.43
2022-11-19T03:17:03.181Z,16.50
2022-11-19T03:19:40.795Z,18.37
2022-11-19T03:22:12.680Z,19.03
2022-11-19T03:24:46.446Z,19.93
2022-11-19T03:27:18.155Z,20.30
2022-11-19T03:29:49.496Z,21.10
2022-11-19T03:32:26.458Z,20.20
2022-11-19T03:34:58.299Z,19.73
2022-11-19T03:37:25.515Z,17.97
2022-11-19T03:39:53.536Z,19.13
2022-11-19T03:42:21.410Z,20.20
2022-11-19T03:44:53.642Z,21.93
2022-11-19T03:47:26.954Z,23.20
2022-11-19T03:49:59.515Z,20.60
2022-11-19T03:52:26.164Z,22.47
2022-11-19T03:54:52.905Z,18.90
2022-11-19T03:57:21.318Z,22.17
2022-11-19T03:59:47.945Z,20.13
2022-11-19T04:02:15.587Z,22.73
2022-11-19T04:04:42.587Z,23.17
2022-11-19T04:07:17.789Z,19.63
2022-11-19T04:09:44.338Z,21.03
2022-11-19T04:12:24.888Z,21.97
2022-11-19T04:14:52.203Z,21.40
2022-11-19T04:17:19.439Z,21.67
2022-11-19T04:19:46.139Z,19.77
2022-11-19T04:22:12.707Z,24.60
2022-11-19T04:24:39.356Z,22.10
2022-11-19T04:27:08.293Z,21.27
2022-11-19T04:29:34.766Z,21.10
2022-11-19T04:32:01.385Z,20.63
2022-11-19T04:34:27.862Z,21.37
2022-11-19T04:36:54.350Z,21.37
2022-11-19T04:39:21.430Z,22.00
2022-11-19T04:41:48.207Z,21.13
2022-11-19T04:44:14.762Z,25.97
2022-11-19T04:46:41.534Z,22.33
2022-11-19T04:49:08.001Z,23.70
2022-11-19T04:51:34.681Z,22.43
2022-11-19T04:54:01.171Z,23.97
2022-11-19T04:56:27.701Z,25.17
2022-11-19T04:58:54.386Z,23.80
2022-11-19T05:01:21.208Z,24.00
2022-11-19T05:03:48.486Z,22.03
2022-11-19T05:06:14.973Z,22.70
2022-11-19T05:08:41.522Z,24.67
2022-11-19T05:11:08.290Z,23.23
2022-11-19T05:13:34.847Z,24.70
2022-11-19T05:16:01.460Z,25.40
2022-11-19T05:18:28.117Z,24.83
2022-11-19T05:20:54.931Z,23.93
2022-11-19T05:23:21.578Z,25.23
2022-11-19T05:25:48.078Z,27.23
2022-11-19T05:28:14.637Z,27.73
2022-11-19T05:30:41.217Z,26.93
2022-11-19T05:33:07.735Z,28.63
2022-11-19T05:35:34.267Z,25.90
2022-11-19T05:38:00.930Z,27.93
2022-11-19T05:40:27.418Z,31.40
2022-11-19T05:42:53.889Z,29.40
2022-11-19T05:45:21.041Z,30.07
2022-11-19T05:47:48.919Z,31.43
2022-11-19T05:50:15.606Z,27.43
2022-11-19T05:52:42.092Z,26.70
2022-11-19T05:55:08.837Z,27.93
2022-11-19T05:57:36.668Z,28.77
2022-11-19T06:00:04.988Z,23.80
2022-11-19T06:02:31.551Z,28.83
2022-11-19T06:04:58.110Z,27.10
2022-11-19T06:07:24.697Z,25.67
2022-11-19T06:09:51.260Z,25.00
2022-11-19T06:12:17.849Z,27.07
2022-11-19T06:14:44.487Z,24.50
2022-11-19T06:17:11.247Z,26.23
2022-11-19T06:19:37.720Z,23.13
2022-11-19T06:22:05.301Z,24.33
2022-11-19T06:24:31.960Z,22.90
2022-11-19T06:26:58.462Z,24.83
2022-11-19T06:29:25.016Z,25.57
2022-11-19T06:31:51.691Z,25.50
2022-11-19T06:34:18.410Z,24.97
2022-11-19T06:36:49.250Z,24.30
2022-11-19T06:39:17.318Z,25.03
2022-11-19T06:41:43.962Z,24.60
2022-11-19T06:44:10.625Z,24.27
2022-11-19T06:46:38.355Z,21.30
2022-11-19T06:49:05.831Z,25.10
2022-11-19T06:51:33.048Z,22.40
2022-11-19T06:53:59.689Z,25.20
2022-11-19T06:56:26.262Z,27.33
2022-11-19T06:58:57.081Z,22.80
2022-11-19T07:01:23.604Z,22.23
2022-11-19T07:03:50.222Z,21.93
2022-11-19T07:06:16.706Z,25.20
2022-11-19T07:08:43.266Z,24.63
2022-11-19T07:11:27.855Z,23.03
2022-11-19T07:13:58.349Z,26.03
2022-11-19T07:16:27.305Z,24.13
2022-11-19T07:18:53.935Z,22.77
2022-11-19T07:21:20.568Z,27.00
2022-11-19T07:23:47.067Z,21.03
2022-11-19T07:26:14.281Z,21.73
2022-11-19T07:28:40.903Z,20.90
2022-11-19T07:31:08.126Z,22.33
2022-11-19T07:33:38.953Z,20.80
2022-11-19T07:36:15.361Z,18.77
2022-11-19T07:38:44.689Z,21.17
2022-11-19T07:41:29.875Z,20.50
2022-11-19T07:43:56.746Z,18.97
2022-11-19T07:46:23.339Z,21.87
2022-11-19T07:48:57.009Z,20.70
2022-11-19T07:51:24.219Z,18.80
2022-11-19T07:53:51.216Z,18.50
2022-11-19T07:56:18.528Z,18.00
2022-11-19T07:58:45.349Z,22.73
2022-11-19T08:01:19.746Z,17.60
2022-11-19T08:03:50.736Z,19.97
2022-11-19T08:06:22.305Z,18.90
2022-11-19T08:08:48.893Z,18.60
2022-11-19T08:11:16.394Z,15.87
2022-11-19T08:13:43.414Z,18.37
2022-11-19T08:16:12.071Z,16.07
2022-11-19T08:18:38.858Z,15.40
2022-11-19T08:21:08.568Z,15.37
2022-11-19T08:23:36.176Z,19.03
2022-11-19T08:26:03.571Z,14.97
2022-11-19T08:28:30.422Z,13.83
2022-11-19T08:30:57.830Z,12.00
2022-11-19T08:33:24.424Z,14.17
2022-11-19T08:35:55.430Z,15.57
2022-11-19T08:38:22.001Z,11.90
2022-11-19T08:40:53.049Z,13.73
2022-11-19T08:43:19.597Z,13.53
2022-11-19T08:45:55.647Z,13.43
2022-11-19T08:48:22.369Z,17.23
2022-11-19T08:50:48.882Z,14.30
2022-11-19T08:53:15.519Z,12.40
2022-11-19T08:55:42.032Z,16.33
2022-11-19T08:58:08.729Z,13.13
2022-11-19T09:00:37.114Z,13.20
2022-11-19T09:03:04.262Z,13.80
2022-11-19T09:05:30.819Z,13.13
2022-11-19T09:07:57.340Z,12.73
2022-11-19T09:10:24.277Z,12.73
2022-11-19T09:12:51.586Z,13.80
2022-11-19T09:15:18.165Z,17.63
2022-11-19T09:17:47.057Z,13.63
2022-11-19T09:20:13.935Z,13.17
2022-11-19T09:22:40.826Z,14.50
2022-11-19T09:25:08.984Z,13.50
2022-11-19T09:27:36.868Z,10.30
2022-11-19T09:30:04.997Z,12.10
2022-11-19T09:32:31.615Z,11.13
2022-11-19T09:34:58.340Z,11.10
2022-11-19T09:37:24.830Z,10.20
2022-11-19T09:39:51.315Z,11.13
2022-11-19T09:42:34.225Z,11.73
2022-11-19T09:45:00.657Z,11.17
2022-11-19T09:47:45.621Z,12.83
2022-11-19T09:50:37.821Z,12.43
2022-11-19T09:53:07.139Z,10.97
2022-11-19T09:55:37.120Z,11.37
2022-11-19T09:58:07.539Z,12.40
2022-11-19T10:00:34.078Z,11.37
2022-11-19T10:03:02.824Z,9.53
2022-11-19T10:05:48.226Z,10.03
2022-11-19T10:08:33.174Z,12.03
2022-11-19T10:11:35.613Z,10.03
2022-11-19T10:14:10.565Z,12.70
2022-11-19T10:17:16.031Z,13.73
2022-11-19T10:20:16.776Z,12.30
2022-11-19T10:23:18.390Z,16.27
2022-11-19T10:25:47.560Z,11.13
2022-11-19T10:28:18.382Z,10.37
2022-11-19T10:30:52.999Z,10.83
2022-11-19T10:33:46.042Z,10.80
2022-11-19T10:36:22.333Z,11.50
2022-11-19T10:38:51.280Z,12.10
2022-11-19T10:41:34.289Z,12.53
2022-11-19T10:44:32.818Z,10.47
2022-11-19T10:47:00.265Z,10.17
2022-11-19T10:49:26.748Z,9.80
2022-11-19T10:51:53.355Z,9.63
2022-11-19T10:54:28.097Z,12.37
2022-11-19T10:56:55.829Z,10.33
2022-11-19T10:59:24.966Z,10.10
2022-11-19T11:01:55.890Z,9.97
2022-11-19T11:04:24.821Z,10.20
2022-11-19T11:06:57.741Z,10.60
2022-11-19T11:09:43.521Z,9.63
2022-11-19T11:12:32.558Z,12.60
2022-11-19T11:15:01.667Z,11.83
2022-11-19T11:17:29.132Z,9.50
2022-11-19T11:20:01.726Z,8.90
2022-11-19T11:22:28.543Z,12.90
2022-11-19T11:24:55.520Z,8.50
2022-11-19T11:27:31.553Z,8.47
2022-11-19T11:30:11.325Z,9.97
2022-11-19T11:32:38.845Z,9.40
2022-11-19T11:35:09.033Z,9.00
2022-11-19T11:37:37.545Z,10.43
2022-11-19T11:40:05.109Z,9.70
2022-11-19T11:42:31.657Z,10.13
2022-11-19T11:45:00.378Z,10.67
2022-11-19T11:47:30.497Z,9.67
2022-11-19T11:50:16.197Z,8.93
2022-11-19T11:52:53.661Z,9.30
2022-11-19T11:55:23.227Z,10.30
2022-11-19T11:57:59.485Z,10.50
2022-11-19T12:00:39.357Z,9.37
2022-11-19T12:03:10.225Z,12.27
2022-11-19T12:05:42.711Z,13.47
2022-11-19T12:08:21.674Z,11.43
2022-11-19T12:11:12.656Z,10.03
2022-11-19T12:13:42.062Z,8.83
2022-11-19T12:16:24.132Z,9.43
2022-11-19T12:19:18.764Z,9.93
2022-11-19T12:22:07.804Z,9.07
2022-11-19T12:24:34.298Z,10.87
2022-11-19T12:27:13.005Z,11.37
2022-11-19T12:30:25.166Z,15.97
2022-11-19T12:33:10.757Z,11.30
2022-11-19T12:36:05.638Z,11.33
2022-11-19T12:38:36.125Z,9.87
2022-11-19T12:41:05.631Z,9.87
2022-11-19T12:43:47.449Z,9.53
2022-11-19T12:46:20.247Z,9.90
2022-11-19T12:48:55.260Z,10.73
2022-11-19T12:51:24.515Z,11.23
2022-11-19T12:53:54.214Z,9.80
2022-11-19T12:56:42.016Z,10.10
2022-11-19T12:59:18.113Z,9.97
2022-11-19T13:01:49.108Z,9.40
2022-11-19T13:04:21.590Z,10.50
2022-11-19T13:06:52.128Z,9.53
2022-11-19T13:09:25.908Z,10.63
2022-11-19T13:11:56.858Z,11.27
2022-11-19T13:14:51.942Z,10.63
2022-11-19T13:17:35.039Z,9.03
2022-11-19T13:20:08.112Z,10.53
2022-11-19T13:22:41.467Z,10.77
2022-11-19T13:25:17.210Z,9.43
2022-11-19T13:27:45.323Z,11.37
2022-11-19T13:30:23.391Z,10.03
2022-11-19T13:32:56.069Z,11.23
2022-11-19T13:35:24.080Z,10.30
2022-11-19T13:38:07.965Z,9.33
2022-11-19T13:40:51.417Z,9.87
2022-11-19T13:43:38.060Z,10.50
2022-11-19T13:46:10.818Z,12.67
2022-11-19T13:48:41.282Z,11.10
2022-11-19T13:51:18.746Z,8.80
2022-11-19T13:53:46.131Z,9.60
2022-11-19T13:56:15.625Z,8.67
2022-11-19T13:58:54.019Z,9.13
2022-11-19T14:01:33.606Z,12.40
2022-11-19T14:04:36.954Z,8.93
2022-11-19T14:07:29.673Z,10.03
2022-11-19T14:10:22.147Z,13.10
2022-11-19T14:13:19.420Z,10.67
2022-11-19T14:16:16.822Z,7.63
2022-11-19T14:19:07.389Z,11.33
2022-11-19T14:21:52.533Z,11.90
2022-11-19T14:24:43.865Z,8.73
2022-11-19T14:27:19.708Z,9.07
2022-11-19T14:29:46.218Z,9.63
2022-11-19T14:32:12.911Z,11.77
2022-11-19T14:34:48.192Z,8.33
2022-11-19T14:37:31.946Z,8.70
2022-11-19T14:40:07.603Z,9.73
2022-11-19T14:42:54.329Z,9.80
2022-11-19T14:45:21.362Z,10.60
2022-11-19T14:47:48.293Z,8.63
2022-11-19T14:50:28.460Z,8.00
2022-11-19T14:52:59.785Z,9.43
2022-11-19T14:55:30.037Z,9.23
2022-11-19T14:58:14.184Z,9.70
2022-11-19T15:00:41.843Z,10.20
2022-11-19T15:03:15.141Z,9.87
2022-11-19T15:05:43.738Z,9.63
2022-11-19T15:08:19.464Z,7.53
2022-11-19T15:11:11.408Z,10.13
2022-11-19T15:13:40.812Z,9.20
2022-11-19T15:16:15.358Z,8.80
2022-11-19T15:18:44.854Z,28.70
2022-11-19T15:21:39.369Z,18.43
2022-11-19T15:24:08.905Z,9.57
2022-11-19T15:26:45.446Z,10.00
2022-11-19T15:29:36.287Z,11.53
2022-11-19T15:32:21.142Z,10.63
2022-11-19T15:35:11.244Z,11.17
2022-11-19T15:37:48.961Z,10.33
2022-11-19T15:40:22.856Z,9.47
2022-11-19T15:43:06.575Z,9.90
2022-11-19T15:46:18.215Z,9.23
2022-11-19T15:48:58.293Z,8.57
2022-11-19T15:51:25.003Z,11.73
2022-11-19T15:54:02.294Z,10.60
2022-11-19T15:56:46.054Z,12.53
2022-11-19T15:59:13.489Z,13.07
2022-11-19T16:01:40.987Z,11.07
2022-11-19T16:04:10.331Z,10.73
2022-11-19T16:06:37.633Z,10.67
2022-11-19T16:09:07.321Z,11.77
2022-11-19T16:11:55.452Z,11.33
2022-11-19T16:14:45.201Z,8.80
2022-11-19T16:17:33.425Z,10.00
2022-11-19T16:20:11.210Z,10.03
2022-11-19T16:22:40.535Z,10.13
2022-11-19T16:25:34.442Z,9.00
2022-11-19T16:28:06.195Z,10.37
2022-11-19T16:30:42.581Z,10.97
2022-11-19T16:33:21.195Z,8.57
2022-11-19T16:35:52.646Z,8.93
2022-11-19T16:38:26.848Z,11.13
2022-11-19T16:41:13.148Z,11.13
2022-11-19T16:43:50.044Z,10.40
2022-11-19T16:46:20.680Z,10.63
2022-11-19T16:48:50.507Z,10.23
2022-11-19T16:51:26.418Z,10.10
2022-11-19T16:53:52.990Z,12.87
2022-11-19T16:56:19.685Z,14.43
2022-11-19T16:58:46.561Z,11.50
2022-11-19T17:01:18.007Z,9.80
2022-11-19T17:03:45.050Z,9.77
2022-11-19T17:06:24.430Z,9.10
2022-11-19T17:08:59.293Z,10.63
2022-11-19T17:12:00.986Z,26.63
2022-11-19T17:14:30.279Z,59.57
2022-11-19T17:16:57.500Z,57.03
2022-11-19T17:19:32.301Z,15.27
2022-11-19T17:22:00.266Z,13.87
2022-11-19T17:24:31.398Z,12.40
2022-11-19T17:26:58.487Z,11.37
2022-11-19T17:29:25.154Z,8.63
2022-11-19T17:31:54.113Z,10.60
2022-11-19T17:34:32.359Z,10.53
2022-11-19T17:36:59.628Z,12.33
2022-11-19T17:39:26.317Z,11.67
2022-11-19T17:42:13.262Z,11.63
2022-11-19T17:44:40.223Z,10.67
2022-11-19T17:47:21.811Z,11.07
2022-11-19T17:49:50.297Z,12.80
2022-11-19T17:52:23.159Z,71.13
2022-11-19T17:54:50.841Z,153.27
2022-11-19T17:57:17.474Z,32.30
2022-11-19T17:59:44.233Z,13.53
2022-11-19T18:02:18.855Z,9.87
2022-11-19T18:04:46.825Z,11.20
2022-11-19T18:07:14.004Z,14.70
2022-11-19T18:09:41.097Z,16.47
2022-11-19T18:12:10.336Z,14.07
2022-11-19T18:14:37.000Z,12.07
2022-11-19T18:17:04.107Z,11.07
2022-11-19T18:19:30.748Z,11.27
2022-11-19T18:21:57.679Z,11.07
2022-11-19T18:24:24.321Z,11.43
2022-11-19T18:26:51.100Z,10.60
2022-11-19T18:29:17.694Z,14.37
2022-11-19T18:31:46.631Z,123.93
2022-11-19T18:34:23.194Z,79.87
2022-11-19T18:36:50.824Z,22.33
2022-11-19T18:39:17.565Z,12.00
2022-11-19T18:41:44.310Z,12.40
2022-11-19T18:44:31.754Z,11.80
2022-11-19T18:46:58.492Z,11.33
2022-11-19T18:49:25.354Z,18.13
2022-11-19T18:51:52.450Z,12.37
2022-11-19T18:54:19.511Z,15.00
2022-11-19T18:56:46.260Z,16.80
2022-11-19T18:59:13.312Z,13.90
2022-11-19T19:01:40.322Z,15.80
2022-11-19T19:04:08.434Z,17.13
2022-11-19T19:06:35.526Z,14.40
2022-11-19T19:09:02.614Z,15.70
2022-11-19T19:11:47.848Z,15.23
2022-11-19T19:14:15.283Z,14.83
2022-11-19T19:16:42.118Z,52.90
2022-11-19T19:19:10.940Z,86.23
2022-11-19T19:21:37.628Z,108.73
2022-11-19T19:24:06.043Z,90.03
2022-11-19T19:26:33.427Z,26.80
2022-11-19T19:29:00.032Z,18.93
2022-11-19T19:31:26.938Z,19.27
2022-11-19T19:33:53.580Z,14.83
2022-11-19T19:36:21.853Z,12.17
2022-11-19T19:38:48.794Z,16.67
2022-11-19T19:41:26.514Z,28.50
2022-11-19T19:43:54.344Z,63.83
2022-11-19T19:46:22.814Z,19.97
2022-11-19T19:48:51.779Z,18.10
2022-11-19T19:51:20.329Z,21.60
2022-11-19T19:53:47.487Z,41.83
2022-11-19T19:56:34.018Z,97.77
2022-11-19T19:59:01.439Z,119.07
2022-11-19T20:01:30.309Z,38.53
2022-11-19T20:04:07.904Z,21.00
2022-11-19T20:06:35.838Z,22.20
2022-11-19T20:09:08.126Z,23.00
2022-11-19T20:11:36.144Z,22.33
2022-11-19T20:14:02.771Z,23.40
2022-11-19T20:16:31.031Z,22.97
2022-11-19T20:18:59.334Z,22.23
2022-11-19T20:21:27.938Z,20.63
2022-11-19T20:23:55.625Z,17.90
2022-11-19T20:26:24.720Z,18.80
2022-11-19T20:28:59.691Z,20.30
2022-11-19T20:31:26.853Z,17.77
2022-11-19T20:33:56.328Z,19.63
2022-11-19T20:36:24.677Z,16.97
2022-11-19T20:38:51.734Z,15.87
2022-11-19T20:41:38.075Z,15.37
2022-11-19T20:44:21.159Z,15.30
2022-11-19T20:46:51.069Z,16.63
2022-11-19T20:49:19.637Z,18.70
2022-11-19T20:51:46.545Z,14.90
2022-11-19T20:54:13.877Z,14.80
2022-11-19T20:56:41.137Z,81.47
2022-11-19T20:59:07.909Z,120.77
2022-11-19T21:01:35.182Z,125.73
2022-11-19T21:04:02.289Z,38.87
2022-11-19T21:06:29.081Z,110.37
2022-11-19T21:08:56.279Z,100.10
2022-11-19T21:11:23.131Z,61.80
2022-11-19T21:13:49.889Z,23.83
2022-11-19T21:16:22.487Z,22.87
2022-11-19T21:18:49.686Z,18.93
2022-11-19T21:21:18.283Z,16.87
2022-11-19T21:23:45.330Z,18.67
2022-11-19T21:26:20.774Z,19.70
2022-11-19T21:28:53.264Z,19.67
2022-11-19T21:31:45.633Z,18.33
2022-11-19T21:34:14.670Z,17.27
2022-11-19T21:36:42.342Z,16.90
2022-11-19T21:39:09.907Z,18.90
2022-11-19T21:41:36.774Z,20.33
2022-11-19T21:44:04.920Z,18.80
2022-11-19T21:46:31.759Z,55.03
2022-11-19T21:48:58.644Z,163.87
2022-11-19T21:51:25.648Z,283.17
2022-11-19T21:53:56.098Z,83.83
2022-11-19T21:56:23.517Z,36.57
2022-11-19T21:58:50.417Z,30.27
2022-11-19T22:01:17.357Z,27.57
2022-11-19T22:03:44.164Z,34.87
2022-11-19T22:06:11.933Z,29.73
2022-11-19T22:08:40.519Z,29.10
2022-11-19T22:11:27.127Z,24.43
2022-11-19T22:13:54.150Z,22.70
2022-11-19T22:16:21.738Z,24.30
2022-11-19T22:18:48.527Z,162.93
2022-11-19T22:21:15.905Z,108.60
2022-11-19T22:23:42.637Z,84.37
2022-11-19T22:26:11.013Z,42.67
2022-11-19T22:28:37.736Z,21.43
2022-11-19T22:31:04.768Z,20.20
2022-11-19T22:33:36.042Z,17.83
2022-11-19T22:36:09.496Z,19.90
2022-11-19T22:38:38.098Z,17.80
2022-11-19T22:41:07.223Z,19.60
2022-11-19T22:43:35.051Z,17.03
2022-11-19T22:46:01.660Z,20.70
2022-11-19T22:48:29.761Z,20.93
2022-11-19T22:50:56.508Z,17.50
2022-11-19T22:53:23.214Z,21.67
2022-11-19T22:55:50.010Z,17.23
2022-11-19T22:58:16.560Z,18.50
2022-11-19T23:00:48.753Z,19.63
2022-11-19T23:03:15.747Z,18.40
2022-11-19T23:05:46.233Z,17.73
2022-11-19T23:08:12.820Z,19.20
2022-11-19T23:10:39.323Z,18.07
2022-11-19T23:13:24.496Z,20.43
2022-11-19T23:16:13.249Z,19.00
2022-11-19T23:18:41.945Z,19.03
2022-11-19T23:21:11.425Z,22.03
2022-11-19T23:23:38.121Z,21.27
2022-11-19T23:26:06.001Z,18.73
2022-11-19T23:28:33.991Z,18.97
2022-11-19T23:31:15.064Z,20.77
2022-11-19T23:33:42.033Z,20.77
2022-11-19T23:36:11.890Z,21.67
2022-11-19T23:38:39.163Z,19.27
2022-11-19T23:41:08.249Z,17.60
2022-11-19T23:43:35.347Z,18.77
2022-11-19T23:46:16.466Z,21.70
2022-11-19T23:48:44.801Z,16.80
2022-11-19T23:51:17.646Z,22.63
2022-11-19T23:53:44.759Z,18.00
2022-11-19T23:56:12.303Z,20.83
2022-11-19T23:58:38.979Z,20.70
